Time;durP1;ratioP1;P1;durP2;ratioP2;P2;SDS_P1;SDS_P2;PMS_P1;PMS_P2;Temp;Humidity;BMP_temperature;BMP_pressure;BME280_temperature;BME280_humidity;BME280_pressure;Samples;Min_cycle;Max_cycle;Signal;HPM_P1;HPM_P2
2022/08/22 00:01:54;;;;;;;;;;;18.20;63.20;;;;;;5124809;27;19919;-60
2022/08/22 00:04:25;;;;;;;;;;;18.20;63.30;;;;;;5131698;27;19927;-60
2022/08/22 00:06:56;;;;;;;;;;;18.10;63.40;;;;;;5130515;27;19919;-61
2022/08/22 00:09:28;;;;;;;;;;;18.10;63.60;;;;;;5131743;27;19964;-61
2022/08/22 00:12:03;;;;;;;;;;;18.10;63.60;;;;;;5133154;27;19958;-61
2022/08/22 00:14:35;;;;;;;;;;;18.10;63.50;;;;;;5120891;27;20014;-61
2022/08/22 00:17:13;;;;;;;;;;;18.10;63.60;;;;;;5132228;27;19936;-61
2022/08/22 00:19:47;;;;;;;;;;;18.10;63.70;;;;;;5127853;27;19923;-61
2022/08/22 00:22:18;;;;;;;;;;;18.10;63.80;;;;;;5131104;27;19919;-62
2022/08/22 00:24:48;;;;;;;;;;;18.10;64.00;;;;;;5132830;27;19925;-60
2022/08/22 00:27:17;;;;;;;;;;;18.00;64.00;;;;;;5126719;27;19966;-61
2022/08/22 00:29:45;;;;;;;;;;;18.00;64.00;;;;;;5131011;27;20245;-61
2022/08/22 00:32:15;;;;;;;;;;;18.00;64.10;;;;;;5131157;27;19919;-61
2022/08/22 00:34:46;;;;;;;;;;;18.00;64.20;;;;;;5129545;27;19925;-61
2022/08/22 00:37:17;;;;;;;;;;;17.90;64.30;;;;;;5126231;27;20248;-61
2022/08/22 00:39:47;;;;;;;;;;;17.90;64.40;;;;;;5127950;27;20276;-60
2022/08/22 00:42:27;;;;;;;;;;;17.80;64.60;;;;;;5130766;27;19927;-61
2022/08/22 00:45:00;;;;;;;;;;;17.80;64.70;;;;;;5128353;27;20021;-61
2022/08/22 00:47:39;;;;;;;;;;;17.70;64.90;;;;;;5130184;27;19923;-61
2022/08/22 00:50:25;;;;;;;;;;;17.70;65.00;;;;;;5125235;27;19927;-62
2022/08/22 00:52:58;;;;;;;;;;;17.70;65.00;;;;;;5127763;27;19951;-62
2022/08/22 00:55:38;;;;;;;;;;;17.70;65.20;;;;;;5130867;27;19920;-61
2022/08/22 00:58:29;;;;;;;;;;;17.60;65.20;;;;;;5126498;27;19925;-63
2022/08/22 01:01:02;;;;;;;;;;;17.70;65.40;;;;;;5119652;27;19919;-62
2022/08/22 01:03:47;;;;;;;;;;;17.60;65.50;;;;;;5124192;27;19920;-62
2022/08/22 01:06:22;;;;;;;;;;;17.60;65.50;;;;;;5130187;27;19923;-61
2022/08/22 01:08:53;;;;;;;;;;;17.60;65.40;;;;;;5129223;27;20391;-62
2022/08/22 01:11:26;;;;;;;;;;;17.60;65.10;;;;;;5130505;27;20005;-62
2022/08/22 01:14:01;;;;;;;;;;;17.60;65.00;;;;;;5131257;27;19919;-61
2022/08/22 01:16:36;;;;;;;;;;;17.50;65.20;;;;;;5130660;27;19919;-62
2022/08/22 01:19:12;;;;;;;;;;;17.50;65.30;;;;;;5122762;27;19944;-59
2022/08/22 01:21:57;;;;;;;;;;;17.50;65.40;;;;;;5126328;27;20376;-61
2022/08/22 01:27:56;;;;;;;;;;;17.40;65.80;;;;;;5128170;27;20502;-61
2022/08/22 01:30:38;;;;;;;;;;;17.40;66.00;;;;;;5122156;27;20137;-62
2022/08/22 01:33:14;;;;;;;;;;;17.40;66.00;;;;;;5131360;27;19926;-60
2022/08/22 01:35:55;;;;;;;;;;;17.40;66.10;;;;;;5131137;27;20570;-60
2022/08/22 01:38:32;;;;;;;;;;;17.40;66.20;;;;;;5131832;27;19980;-61
2022/08/22 01:41:15;;;;;;;;;;;17.30;66.20;;;;;;5126857;27;19920;-59
2022/08/22 01:44:01;;;;;;;;;;;17.30;66.40;;;;;;5128946;27;21567;-61
2022/08/22 01:46:41;;;;;;;;;;;17.30;66.60;;;;;;5130733;27;19919;-62
2022/08/22 01:49:10;;;;;;;;;;;17.20;66.60;;;;;;5130476;27;20084;-61
2022/08/22 01:51:45;;;;;;;;;;;17.20;66.70;;;;;;5127470;27;19919;-61
2022/08/22 01:54:14;;;;;;;;;;;17.20;66.70;;;;;;5125105;27;19928;-61
2022/08/22 01:56:43;;;;;;;;;;;17.20;66.70;;;;;;5129081;27;19926;-60
2022/08/22 01:59:11;;;;;;;;;;;17.20;66.50;;;;;;5127507;27;20701;-61
2022/08/22 02:01:47;;;;;;;;;;;17.10;66.60;;;;;;5127042;27;20326;-61
2022/08/22 02:04:18;;;;;;;;;;;17.10;66.70;;;;;;5128018;27;20207;-59
2022/08/22 02:06:50;;;;;;;;;;;17.10;66.80;;;;;;5129201;27;19927;-60
2022/08/22 02:09:22;;;;;;;;;;;17.10;66.90;;;;;;5129236;27;19920;-61
2022/08/22 02:11:52;;;;;;;;;;;17.00;67.10;;;;;;5129089;27;20399;-61
2022/08/22 02:14:35;;;;;;;;;;;17.00;67.10;;;;;;5129396;27;20386;-61
2022/08/22 02:17:10;;;;;;;;;;;17.00;67.20;;;;;;5128800;27;19972;-62
2022/08/22 02:19:40;;;;;;;;;;;16.90;67.30;;;;;;5125586;27;20304;-60
2022/08/22 02:22:20;;;;;;;;;;;16.90;67.30;;;;;;5127446;27;19919;-61
2022/08/22 02:24:50;;;;;;;;;;;17.00;67.30;;;;;;5126773;27;19923;-61
2022/08/22 02:27:23;;;;;;;;;;;17.00;67.30;;;;;;5126834;27;19920;-61
2022/08/22 02:29:57;;;;;;;;;;;16.90;67.60;;;;;;5132276;27;19972;-61
2022/08/22 02:32:26;;;;;;;;;;;16.90;67.70;;;;;;5132581;27;19941;-59
2022/08/22 02:34:57;;;;;;;;;;;16.90;67.70;;;;;;5129199;27;19926;-62
2022/08/22 02:37:32;;;;;;;;;;;16.80;67.70;;;;;;5127538;27;20379;-61
2022/08/22 02:40:03;;;;;;;;;;;16.80;67.80;;;;;;5130374;27;19920;-60
2022/08/22 02:42:42;;;;;;;;;;;16.80;67.90;;;;;;5130487;27;19919;-62
2022/08/22 02:45:15;;;;;;;;;;;16.70;68.00;;;;;;5133502;27;19926;-62
2022/08/22 02:47:48;;;;;;;;;;;16.70;68.20;;;;;;5130834;27;19919;-62
2022/08/22 02:50:17;;;;;;;;;;;16.70;68.20;;;;;;5132957;27;19919;-62
2022/08/22 02:52:52;;;;;;;;;;;16.70;68.30;;;;;;5131187;27;20284;-62
2022/08/22 02:55:21;;;;;;;;;;;16.70;68.30;;;;;;5117699;27;19919;-62
2022/08/22 02:57:56;;;;;;;;;;;16.70;68.40;;;;;;5132043;27;19926;-61
2022/08/22 03:00:26;;;;;;;;;;;16.60;68.40;;;;;;5130569;27;20364;-60
2022/08/22 03:03:01;;;;;;;;;;;16.60;68.50;;;;;;5126449;27;19956;-62
2022/08/22 03:05:28;;;;;;;;;;;16.60;68.60;;;;;;5128940;27;19949;-61
2022/08/22 03:08:01;;;;;;;;;;;16.60;68.70;;;;;;5134750;27;19919;-62
2022/08/22 03:10:34;;;;;;;;;;;16.60;68.70;;;;;;5134119;27;19919;-61
2022/08/22 03:13:06;;;;;;;;;;;16.60;68.80;;;;;;5122544;27;19919;-62
2022/08/22 03:15:36;;;;;;;;;;;16.60;68.80;;;;;;5132531;27;19966;-61
2022/08/22 03:18:05;;;;;;;;;;;16.50;68.80;;;;;;5128079;27;19972;-61
2022/08/22 03:20:41;;;;;;;;;;;16.50;68.90;;;;;;5132193;27;20222;-62
2022/08/22 03:23:13;;;;;;;;;;;16.50;68.80;;;;;;5133108;27;20308;-62
2022/08/22 03:25:45;;;;;;;;;;;16.50;69.00;;;;;;5128515;27;19929;-62
2022/08/22 03:28:14;;;;;;;;;;;16.50;69.00;;;;;;5134113;27;19964;-62
2022/08/22 03:30:43;;;;;;;;;;;16.40;69.10;;;;;;5123142;27;19926;-62
2022/08/22 03:33:14;;;;;;;;;;;16.50;69.00;;;;;;5132079;27;20400;-62
2022/08/22 03:35:51;;;;;;;;;;;16.50;69.10;;;;;;5128934;27;19919;-62
2022/08/22 03:38:23;;;;;;;;;;;16.50;69.00;;;;;;5130112;27;19923;-61
2022/08/22 03:41:06;;;;;;;;;;;16.50;69.00;;;;;;5133467;27;19919;-61
2022/08/22 03:43:39;;;;;;;;;;;16.50;69.00;;;;;;5128449;27;19919;-61
2022/08/22 03:46:29;;;;;;;;;;;16.40;69.10;;;;;;5130926;27;20293;-62
2022/08/22 03:49:03;;;;;;;;;;;16.40;69.20;;;;;;5106250;27;19962;-61
2022/08/22 03:51:40;;;;;;;;;;;16.40;69.20;;;;;;5129327;27;19927;-62
2022/08/22 03:54:21;;;;;;;;;;;16.30;69.40;;;;;;5127483;27;20025;-62
2022/08/22 03:57:12;;;;;;;;;;;16.30;69.50;;;;;;5126811;27;20302;-61
2022/08/22 03:59:50;;;;;;;;;;;16.30;69.50;;;;;;5124374;27;19924;-62
2022/08/22 04:02:29;;;;;;;;;;;16.20;69.50;;;;;;5120577;27;19985;-61
2022/08/22 04:05:22;;;;;;;;;;;16.20;69.60;;;;;;5123264;27;20276;-61
2022/08/22 04:08:13;;;;;;;;;;;16.20;69.60;;;;;;5077738;27;19987;-62
2022/08/22 04:10:55;;;;;;;;;;;16.20;69.80;;;;;;5126708;27;20010;-61
2022/08/22 04:13:35;;;;;;;;;;;16.20;69.80;;;;;;5126507;27;19925;-60
2022/08/22 04:16:25;;;;;;;;;;;16.20;69.70;;;;;;5125193;27;20240;-61
2022/08/22 04:19:01;;;;;;;;;;;16.10;70.00;;;;;;5128103;27;19919;-61
2022/08/22 04:21:49;;;;;;;;;;;16.10;70.10;;;;;;5127534;27;19919;-61
2022/08/22 04:24:33;;;;;;;;;;;16.00;70.30;;;;;;5096086;27;20385;-61
2022/08/22 04:27:04;;;;;;;;;;;16.00;70.20;;;;;;5137553;27;20120;-61
2022/08/22 04:29:35;;;;;;;;;;;16.00;70.10;;;;;;5129642;27;19931;-61
2022/08/22 04:32:03;;;;;;;;;;;16.00;70.30;;;;;;5131796;27;19919;-65
2022/08/22 04:34:34;;;;;;;;;;;16.00;70.30;;;;;;5131876;27;19919;-62
2022/08/22 04:37:04;;;;;;;;;;;16.00;70.30;;;;;;5128087;27;19920;-62
2022/08/22 04:39:34;;;;;;;;;;;16.00;70.40;;;;;;5130105;27;19964;-61
2022/08/22 04:42:02;;;;;;;;;;;16.00;70.50;;;;;;5131169;27;19960;-61
2022/08/22 04:44:35;;;;;;;;;;;15.90;70.50;;;;;;5129066;27;20341;-62
2022/08/22 04:47:06;;;;;;;;;;;16.00;70.60;;;;;;5121730;27;19919;-60
2022/08/22 04:49:35;;;;;;;;;;;16.00;70.40;;;;;;5130307;27;20331;-62
2022/08/22 04:52:06;;;;;;;;;;;16.00;70.40;;;;;;5127850;27;19942;-61
2022/08/22 04:54:40;;;;;;;;;;;16.00;70.60;;;;;;5132030;27;19925;-62
2022/08/22 04:57:10;;;;;;;;;;;15.90;70.60;;;;;;5132064;27;19938;-63
2022/08/22 04:59:38;;;;;;;;;;;15.90;70.50;;;;;;5130347;27;19923;-61
2022/08/22 05:02:07;;;;;;;;;;;16.00;70.50;;;;;;5131248;27;19926;-60
2022/08/22 05:04:36;;;;;;;;;;;16.00;70.60;;;;;;5130817;27;19926;-61
2022/08/22 05:07:05;;;;;;;;;;;16.00;70.50;;;;;;5131878;27;20551;-61
2022/08/22 05:09:33;;;;;;;;;;;16.10;70.40;;;;;;5135290;27;19923;-62
2022/08/22 05:12:03;;;;;;;;;;;16.10;70.30;;;;;;5131522;27;19919;-61
2022/08/22 05:14:34;;;;;;;;;;;16.10;70.30;;;;;;5121750;27;20384;-61
2022/08/22 05:17:03;;;;;;;;;;;16.10;70.30;;;;;;5131052;27;20039;-62
2022/08/22 05:19:33;;;;;;;;;;;16.20;70.30;;;;;;5130923;27;20475;-61
2022/08/22 05:22:01;;;;;;;;;;;16.20;70.30;;;;;;5124317;27;19923;-61
2022/08/22 05:24:32;;;;;;;;;;;16.20;70.20;;;;;;5124256;27;19923;-61
2022/08/22 05:27:02;;;;;;;;;;;16.30;70.20;;;;;;5123861;27;19919;-61
2022/08/22 05:29:31;;;;;;;;;;;16.20;70.10;;;;;;5124836;27;20296;-61
2022/08/22 05:31:59;;;;;;;;;;;16.30;70.20;;;;;;5127831;27;19950;-61
2022/08/22 05:34:28;;;;;;;;;;;16.20;70.10;;;;;;5118818;27;19920;-60
2022/08/22 05:36:57;;;;;;;;;;;16.20;70.20;;;;;;5119131;27;19923;-62
2022/08/22 05:39:25;;;;;;;;;;;16.30;70.10;;;;;;5128368;27;19930;-60
2022/08/22 05:41:53;;;;;;;;;;;16.30;70.20;;;;;;5123745;27;19926;-61
2022/08/22 05:44:22;;;;;;;;;;;16.30;70.00;;;;;;5123975;27;19934;-61
2022/08/22 05:46:51;;;;;;;;;;;16.40;69.90;;;;;;5127428;27;19961;-61
2022/08/22 05:49:19;;;;;;;;;;;16.40;70.10;;;;;;5129755;27;19927;-63
2022/08/22 05:51:51;;;;;;;;;;;16.40;70.10;;;;;;5125311;27;20360;-62
2022/08/22 05:54:23;;;;;;;;;;;16.40;70.10;;;;;;5129372;27;19930;-62
2022/08/22 05:56:52;;;;;;;;;;;16.40;70.20;;;;;;5120140;27;20039;-61
2022/08/22 05:59:22;;;;;;;;;;;16.40;70.30;;;;;;5127260;27;20312;-61
2022/08/22 06:01:55;;;;;;;;;;;16.50;70.20;;;;;;5130087;27;19919;-61
2022/08/22 06:04:26;;;;;;;;;;;16.60;70.10;;;;;;5133639;27;19940;-61
2022/08/22 06:06:56;;;;;;;;;;;16.60;70.20;;;;;;5132816;27;19926;-61
2022/08/22 06:09:28;;;;;;;;;;;16.60;70.00;;;;;;5132689;27;19967;-61
2022/08/22 06:11:58;;;;;;;;;;;16.60;70.20;;;;;;5134255;27;19942;-62
2022/08/22 06:14:28;;;;;;;;;;;16.60;70.20;;;;;;5135165;27;19925;-62
2022/08/22 06:16:58;;;;;;;;;;;16.70;70.00;;;;;;5129872;27;19919;-62
2022/08/22 06:19:25;;;;;;;;;;;16.80;69.80;;;;;;5132289;27;19919;-61
2022/08/22 06:21:54;;;;;;;;;;;16.80;69.70;;;;;;5132092;27;19919;-62
2022/08/22 06:24:24;;;;;;;;;;;16.90;69.40;;;;;;5134494;27;19927;-62
2022/08/22 06:26:56;;;;;;;;;;;17.00;69.10;;;;;;5132076;27;19980;-62
2022/08/22 06:29:29;;;;;;;;;;;17.00;69.40;;;;;;5135241;27;19919;-62
2022/08/22 06:31:56;;;;;;;;;;;17.00;69.30;;;;;;5134426;27;19972;-62
2022/08/22 06:34:25;;;;;;;;;;;17.10;68.90;;;;;;5131691;27;20223;-62
2022/08/22 06:36:54;;;;;;;;;;;17.20;69.50;;;;;;5134420;27;19923;-62
2022/08/22 06:39:23;;;;;;;;;;;17.20;69.00;;;;;;5133460;27;19934;-62
2022/08/22 06:41:52;;;;;;;;;;;17.40;69.30;;;;;;5126178;27;19920;-62
2022/08/22 06:44:21;;;;;;;;;;;17.50;68.90;;;;;;5133727;27;19919;-61
2022/08/22 06:46:49;;;;;;;;;;;17.70;68.40;;;;;;5134794;27;20006;-62
2022/08/22 06:49:16;;;;;;;;;;;17.80;68.60;;;;;;5131911;27;19920;-62
2022/08/22 06:51:44;;;;;;;;;;;17.90;68.40;;;;;;5129848;27;19926;-62
2022/08/22 06:54:14;;;;;;;;;;;18.10;68.40;;;;;;5133624;27;19983;-62
2022/08/22 06:56:42;;;;;;;;;;;18.20;68.30;;;;;;5134106;27;19927;-62
2022/08/22 06:59:13;;;;;;;;;;;18.40;68.20;;;;;;5130082;27;19919;-61
2022/08/22 07:01:49;;;;;;;;;;;18.50;68.60;;;;;;5130872;27;19920;-61
2022/08/22 07:04:15;;;;;;;;;;;18.60;68.50;;;;;;5133058;27;19920;-61
2022/08/22 07:06:44;;;;;;;;;;;18.70;68.40;;;;;;5123381;27;19919;-62
2022/08/22 07:09:18;;;;;;;;;;;18.90;68.20;;;;;;5131145;27;19966;-62
2022/08/22 07:11:44;;;;;;;;;;;19.00;68.10;;;;;;5126388;27;19925;-61
2022/08/22 07:14:15;;;;;;;;;;;19.20;68.00;;;;;;5126399;27;20417;-62
2022/08/22 07:16:43;;;;;;;;;;;19.40;67.60;;;;;;5131014;27;19919;-61
2022/08/22 07:19:13;;;;;;;;;;;19.60;67.10;;;;;;5127717;27;19919;-61
2022/08/22 07:21:44;;;;;;;;;;;19.80;67.10;;;;;;5131536;27;19930;-61
2022/08/22 07:24:14;;;;;;;;;;;19.90;66.80;;;;;;5133229;27;20295;-61
2022/08/22 07:26:46;;;;;;;;;;;20.10;66.20;;;;;;5130861;27;19923;-62
2022/08/22 07:29:19;;;;;;;;;;;20.30;65.60;;;;;;5132090;27;19919;-64
2022/08/22 07:31:49;;;;;;;;;;;20.40;65.60;;;;;;5132173;27;19925;-61
2022/08/22 07:34:34;;;;;;;;;;;20.60;65.90;;;;;;5131934;27;19930;-62
2022/08/22 07:37:04;;;;;;;;;;;20.70;65.20;;;;;;5129604;27;19920;-61
2022/08/22 07:39:35;;;;;;;;;;;20.80;64.80;;;;;;5128283;27;19929;-62
2022/08/22 07:42:08;;;;;;;;;;;21.10;64.50;;;;;;5130804;27;20441;-62
2022/08/22 07:44:40;;;;;;;;;;;21.30;64.20;;;;;;5128926;27;19923;-62
2022/08/22 07:47:08;;;;;;;;;;;21.40;63.90;;;;;;5123976;27;19920;-62
2022/08/22 07:49:37;;;;;;;;;;;21.60;63.10;;;;;;5133424;27;19941;-62
2022/08/22 07:52:06;;;;;;;;;;;21.70;63.00;;;;;;5131499;27;19979;-62
2022/08/22 07:54:36;;;;;;;;;;;21.80;63.10;;;;;;5133052;27;19919;-62
2022/08/22 07:57:04;;;;;;;;;;;21.90;62.80;;;;;;5126140;27;19927;-64
2022/08/22 07:59:33;;;;;;;;;;;22.10;62.40;;;;;;5132520;27;19927;-62
2022/08/22 08:02:04;;;;;;;;;;;22.10;62.70;;;;;;5129080;27;20324;-62
2022/08/22 08:04:33;;;;;;;;;;;22.30;61.80;;;;;;5124812;27;19919;-62
2022/08/22 08:07:01;;;;;;;;;;;22.50;60.70;;;;;;5135579;27;20410;-61
2022/08/22 08:09:31;;;;;;;;;;;22.60;59.90;;;;;;5132651;27;19927;-61
2022/08/22 08:11:59;;;;;;;;;;;22.80;58.90;;;;;;5129881;27;20014;-61
2022/08/22 08:14:26;;;;;;;;;;;22.90;59.60;;;;;;5133075;27;19923;-61
2022/08/22 08:17:00;;;;;;;;;;;23.10;58.70;;;;;;5130764;27;19958;-61
2022/08/22 08:19:28;;;;;;;;;;;23.20;58.10;;;;;;5130004;27;19973;-62
2022/08/22 08:21:56;;;;;;;;;;;23.30;57.80;;;;;;5132229;27;19927;-62
2022/08/22 08:24:25;;;;;;;;;;;23.40;57.30;;;;;;5132014;27;20793;-60
2022/08/22 08:29:38;;;;;;;;;;;23.70;55.90;;;;;;5127577;27;19926;-61
2022/08/22 08:32:08;;;;;;;;;;;23.80;55.90;;;;;;5132705;27;19919;-60
2022/08/22 08:34:37;;;;;;;;;;;23.90;55.70;;;;;;5130761;27;19919;-61
2022/08/22 08:37:08;;;;;;;;;;;24.00;54.70;;;;;;5129891;27;19920;-61
2022/08/22 08:39:37;;;;;;;;;;;24.10;54.30;;;;;;5126136;27;19919;-61
2022/08/22 08:42:21;;;;;;;;;;;24.20;54.30;;;;;;5131844;27;19944;-61
2022/08/22 08:45:00;;;;;;;;;;;24.30;53.70;;;;;;5128413;27;19923;-61
2022/08/22 08:47:42;;;;;;;;;;;24.50;53.30;;;;;;5129059;27;19942;-60
2022/08/22 08:50:21;;;;;;;;;;;24.50;52.60;;;;;;5127413;27;20341;-61
2022/08/22 08:53:04;;;;;;;;;;;24.70;52.30;;;;;;5130393;27;19919;-61
2022/08/22 08:55:37;;;;;;;;;;;24.70;52.10;;;;;;5130318;27;19965;-61
2022/08/22 08:58:15;;;;;;;;;;;24.90;51.70;;;;;;5122043;27;20380;-60
2022/08/22 09:00:49;;;;;;;;;;;25.00;51.50;;;;;;5127444;27;19925;-60
2022/08/22 09:03:23;;;;;;;;;;;25.10;51.00;;;;;;5130325;27;19923;-62
2022/08/22 09:05:59;;;;;;;;;;;25.20;50.70;;;;;;5130971;27;19942;-62
2022/08/22 09:08:35;;;;;;;;;;;25.40;49.00;;;;;;5126845;27;19923;-61
2022/08/22 09:11:13;;;;;;;;;;;25.40;49.70;;;;;;5129665;27;19919;-60
2022/08/22 09:13:46;;;;;;;;;;;25.50;49.70;;;;;;5129582;27;19955;-60
2022/08/22 09:16:21;;;;;;;;;;;25.60;49.10;;;;;;5124772;27;19926;-60
2022/08/22 09:18:54;;;;;;;;;;;25.70;48.40;;;;;;5127146;27;20351;-62
2022/08/22 09:21:35;;;;;;;;;;;25.80;48.40;;;;;;5127810;27;19926;-60
2022/08/22 09:24:16;;;;;;;;;;;25.90;47.80;;;;;;5127727;27;20081;-60
2022/08/22 09:26:46;;;;;;;;;;;26.00;47.00;;;;;;5127923;27;19926;-60
2022/08/22 09:29:23;;;;;;;;;;;26.10;46.60;;;;;;5131602;27;19919;-61
2022/08/22 09:31:54;;;;;;;;;;;26.20;46.40;;;;;;5126737;27;19930;-60
2022/08/22 09:34:26;;;;;;;;;;;26.30;46.40;;;;;;5131556;27;20368;-61
2022/08/22 09:37:05;;;;;;;;;;;26.40;46.00;;;;;;5131838;27;20398;-60
2022/08/22 09:39:35;;;;;;;;;;;26.50;46.20;;;;;;5134290;27;20384;-61
2022/08/22 09:42:03;;;;;;;;;;;26.60;46.00;;;;;;5135692;27;19923;-60
2022/08/22 09:44:35;;;;;;;;;;;26.60;45.70;;;;;;5128886;27;19919;-61
2022/08/22 09:47:06;;;;;;;;;;;26.70;45.60;;;;;;5135848;27;19920;-61
2022/08/22 09:49:42;;;;;;;;;;;26.70;45.40;;;;;;5136329;27;20370;-60
2022/08/22 09:52:14;;;;;;;;;;;26.80;44.20;;;;;;5135384;27;19919;-61
2022/08/22 09:54:44;;;;;;;;;;;26.90;44.50;;;;;;5134078;27;19931;-60
2022/08/22 09:57:28;;;;;;;;;;;26.90;44.60;;;;;;5129754;27;20010;-60
2022/08/22 10:00:12;;;;;;;;;;;27.00;43.80;;;;;;5126094;27;19919;-61
2022/08/22 10:02:44;;;;;;;;;;;27.10;43.60;;;;;;5133026;27;19919;-61
2022/08/22 10:05:13;;;;;;;;;;;27.10;43.10;;;;;;5132180;27;20351;-59
2022/08/22 10:08:01;;;;;;;;;;;27.30;43.00;;;;;;5134707;27;19925;-60
2022/08/22 10:10:46;;;;;;;;;;;27.40;42.50;;;;;;5130481;27;19919;-61
2022/08/22 10:13:19;;;;;;;;;;;27.50;42.40;;;;;;5135848;27;19934;-60
2022/08/22 10:15:52;;;;;;;;;;;27.60;42.10;;;;;;5134786;27;19919;-62
2022/08/22 10:18:25;;;;;;;;;;;27.60;41.90;;;;;;5130853;27;19923;-60
2022/08/22 10:21:00;;;;;;;;;;;27.60;41.80;;;;;;5134555;27;19926;-61
2022/08/22 10:23:32;;;;;;;;;;;27.70;40.70;;;;;;5133620;27;19939;-60
2022/08/22 10:26:04;;;;;;;;;;;27.80;39.70;;;;;;5132014;27;19927;-61
2022/08/22 10:28:38;;;;;;;;;;;28.00;39.10;;;;;;5131270;27;20014;-60
2022/08/22 10:31:12;;;;;;;;;;;28.00;39.70;;;;;;5125962;27;20555;-61
2022/08/22 10:33:41;;;;;;;;;;;28.00;39.80;;;;;;5132127;27;19919;-60
2022/08/22 10:36:10;;;;;;;;;;;28.00;40.10;;;;;;5131459;27;20137;-61
2022/08/22 10:38:38;;;;;;;;;;;27.80;39.90;;;;;;5131991;27;19926;-62
2022/08/22 10:41:08;;;;;;;;;;;27.70;39.80;;;;;;5128011;27;19926;-62
2022/08/22 10:43:40;;;;;;;;;;;27.50;40.30;;;;;;5130077;27;19931;-61
2022/08/22 10:46:10;;;;;;;;;;;27.50;39.60;;;;;;5126108;27;19919;-61
2022/08/22 10:48:44;;;;;;;;;;;27.60;39.80;;;;;;5127187;27;19948;-62
2022/08/22 10:51:16;;;;;;;;;;;27.60;39.30;;;;;;5129546;27;20280;-60
2022/08/22 10:53:56;;;;;;;;;;;27.70;39.50;;;;;;5129536;27;19919;-61
2022/08/22 10:56:26;;;;;;;;;;;27.80;39.60;;;;;;5132994;27;19920;-61
2022/08/22 10:58:56;;;;;;;;;;;28.00;39.20;;;;;;5132580;27;19934;-61
2022/08/22 11:01:25;;;;;;;;;;;28.10;38.80;;;;;;5124757;27;19934;-61
2022/08/22 11:03:56;;;;;;;;;;;28.20;38.40;;;;;;5132166;27;19972;-62
2022/08/22 11:06:25;;;;;;;;;;;28.30;38.90;;;;;;5132996;27;20299;-62
2022/08/22 11:09:04;;;;;;;;;;;28.30;38.40;;;;;;5134190;27;19919;-61
2022/08/22 11:11:42;;;;;;;;;;;28.40;38.70;;;;;;5127681;27;19927;-60
2022/08/22 11:14:34;;;;;;;;;;;28.50;38.40;;;;;;5123299;27;19919;-60
2022/08/22 11:17:09;;;;;;;;;;;28.50;38.50;;;;;;5131719;27;20355;-61
2022/08/22 11:19:43;;;;;;;;;;;28.70;38.30;;;;;;5130604;27;19920;-61
2022/08/22 11:22:14;;;;;;;;;;;28.70;38.10;;;;;;5132732;27;20014;-62
2022/08/22 11:24:59;;;;;;;;;;;28.80;38.00;;;;;;5133251;27;19923;-60
2022/08/22 11:27:32;;;;;;;;;;;28.90;38.10;;;;;;5132213;27;20018;-61
2022/08/22 11:30:03;;;;;;;;;;;29.00;37.70;;;;;;5131334;27;20337;-61
2022/08/22 11:32:34;;;;;;;;;;;29.00;38.10;;;;;;5130513;27;19942;-61
2022/08/22 11:35:04;;;;;;;;;;;29.10;37.20;;;;;;5137228;27;19923;-60
2022/08/22 11:37:39;;;;;;;;;;;29.10;37.20;;;;;;5132123;27;19957;-62
2022/08/22 11:40:18;;;;;;;;;;;29.20;36.90;;;;;;5126496;27;19919;-62
2022/08/22 11:42:47;;;;;;;;;;;29.20;36.70;;;;;;5132242;27;19927;-61
2022/08/22 11:45:18;;;;;;;;;;;29.30;36.20;;;;;;5127918;27;19923;-61
2022/08/22 11:47:50;;;;;;;;;;;29.40;36.30;;;;;;5132811;27;19919;-62
2022/08/22 11:50:25;;;;;;;;;;;29.50;36.40;;;;;;5135136;27;19919;-63
2022/08/22 11:52:56;;;;;;;;;;;29.50;35.70;;;;;;5133325;27;19923;-60
2022/08/22 11:55:26;;;;;;;;;;;29.50;35.70;;;;;;5130105;27;19919;-62
2022/08/22 11:57:55;;;;;;;;;;;29.60;35.60;;;;;;5132892;27;20017;-61
2022/08/22 12:00:29;;;;;;;;;;;29.70;35.30;;;;;;5130275;27;19930;-60
2022/08/22 12:03:00;;;;;;;;;;;29.80;35.00;;;;;;5132078;27;19919;-62
2022/08/22 12:05:30;;;;;;;;;;;29.80;35.40;;;;;;5130593;27;20345;-61
2022/08/22 12:08:03;;;;;;;;;;;29.80;35.30;;;;;;5131290;27;19930;-62
2022/08/22 12:10:33;;;;;;;;;;;29.80;35.30;;;;;;5129055;27;19942;-62
2022/08/22 12:13:03;;;;;;;;;;;29.80;35.90;;;;;;5120904;27;19920;-63
2022/08/22 12:15:36;;;;;;;;;;;29.80;35.50;;;;;;5130337;27;19923;-61
2022/08/22 12:18:16;;;;;;;;;;;29.90;34.90;;;;;;5131199;27;19926;-60
2022/08/22 12:20:58;;;;;;;;;;;29.90;36.00;;;;;;5129475;27;20269;-61
2022/08/22 12:23:30;;;;;;;;;;;29.90;35.10;;;;;;5126266;27;20368;-61
2022/08/22 12:26:05;;;;;;;;;;;29.80;35.10;;;;;;5130853;27;19926;-60
2022/08/22 12:28:36;;;;;;;;;;;29.60;34.80;;;;;;5128650;27;19927;-64
2022/08/22 12:31:08;;;;;;;;;;;29.50;34.90;;;;;;5127243;27;19925;-62
2022/08/22 12:33:44;;;;;;;;;;;29.30;34.70;;;;;;5130600;27;19919;-60
2022/08/22 12:36:20;;;;;;;;;;;29.20;35.30;;;;;;5133675;27;19963;-61
2022/08/22 12:38:51;;;;;;;;;;;29.00;35.30;;;;;;5128951;27;19919;-61
2022/08/22 12:41:42;;;;;;;;;;;28.80;36.20;;;;;;5120886;27;20242;-62
2022/08/22 12:44:24;;;;;;;;;;;28.70;35.50;;;;;;5106259;27;19926;-62
2022/08/22 12:47:00;;;;;;;;;;;28.50;36.90;;;;;;5128488;27;19923;-62
2022/08/22 12:49:35;;;;;;;;;;;28.40;36.70;;;;;;5129320;27;19953;-62
2022/08/22 12:52:13;;;;;;;;;;;28.40;36.70;;;;;;5132775;27;19923;-60
2022/08/22 12:54:52;;;;;;;;;;;28.30;35.90;;;;;;5131546;27;20171;-60
2022/08/22 12:57:24;;;;;;;;;;;28.30;36.80;;;;;;5130663;27;20479;-60
2022/08/22 12:59:53;;;;;;;;;;;28.20;36.20;;;;;;5128287;27;19919;-62
2022/08/22 13:02:24;;;;;;;;;;;28.10;37.60;;;;;;5122858;27;19927;-62
2022/08/22 13:04:53;;;;;;;;;;;28.10;37.30;;;;;;5130814;27;19919;-61
2022/08/22 13:07:22;;;;;;;;;;;28.00;37.00;;;;;;5130713;27;19930;-61
2022/08/22 13:09:50;;;;;;;;;;;28.00;37.50;;;;;;5129982;27;19924;-60
2022/08/22 13:12:20;;;;;;;;;;;27.90;37.10;;;;;;5131732;27;19919;-62
2022/08/22 13:14:51;;;;;;;;;;;27.80;38.10;;;;;;5130477;27;19919;-60
2022/08/22 13:17:19;;;;;;;;;;;27.80;38.90;;;;;;5129541;27;20083;-61
2022/08/22 13:19:53;;;;;;;;;;;27.70;38.60;;;;;;5127268;27;19924;-60
2022/08/22 13:22:23;;;;;;;;;;;27.60;37.70;;;;;;5133149;27;19926;-62
2022/08/22 13:24:53;;;;;;;;;;;27.60;37.10;;;;;;5132256;27;19924;-61
2022/08/22 13:27:22;;;;;;;;;;;27.60;37.60;;;;;;5131802;27;19920;-61
2022/08/22 13:29:51;;;;;;;;;;;27.60;37.10;;;;;;5125556;27;20003;-60
2022/08/22 13:32:21;;;;;;;;;;;27.60;37.90;;;;;;5132835;27;19934;-61
2022/08/22 13:34:51;;;;;;;;;;;27.60;38.70;;;;;;5129662;27;20057;-61
2022/08/22 13:37:21;;;;;;;;;;;27.60;38.80;;;;;;5124497;27;19919;-61
2022/08/22 13:39:49;;;;;;;;;;;27.70;37.30;;;;;;5130058;28;19919;-61
2022/08/22 13:42:17;;;;;;;;;;;27.80;35.20;;;;;;5129053;27;20413;-60
2022/08/22 13:44:47;;;;;;;;;;;27.80;36.80;;;;;;5130340;28;19919;-60
2022/08/22 13:47:16;;;;;;;;;;;27.80;38.50;;;;;;5126809;27;19923;-61
2022/08/22 13:49:45;;;;;;;;;;;27.70;38.90;;;;;;5130000;27;20446;-61
2022/08/22 13:52:19;;;;;;;;;;;27.80;39.20;;;;;;5126928;27;19919;-60
2022/08/22 13:54:52;;;;;;;;;;;27.90;36.60;;;;;;5123077;27;19923;-62
2022/08/22 13:57:21;;;;;;;;;;;28.00;35.70;;;;;;5129983;27;19931;-61
2022/08/22 13:59:51;;;;;;;;;;;28.00;37.00;;;;;;5130329;27;19919;-60
2022/08/22 14:02:25;;;;;;;;;;;28.00;37.60;;;;;;5122565;27;19930;-62
2022/08/22 14:04:53;;;;;;;;;;;28.00;37.60;;;;;;5129786;27;19919;-60
2022/08/22 14:07:24;;;;;;;;;;;27.90;38.10;;;;;;5124540;28;19919;-61
2022/08/22 14:09:53;;;;;;;;;;;27.90;37.80;;;;;;5124346;28;19927;-60
2022/08/22 14:12:22;;;;;;;;;;;27.90;37.50;;;;;;5127941;27;19930;-61
2022/08/22 14:14:54;;;;;;;;;;;27.80;37.60;;;;;;5124496;27;19926;-60
2022/08/22 14:17:23;;;;;;;;;;;27.90;37.30;;;;;;5133399;27;19919;-60
2022/08/22 14:19:53;;;;;;;;;;;27.90;36.80;;;;;;5126275;27;19928;-60
2022/08/22 14:22:21;;;;;;;;;;;27.90;37.10;;;;;;5129133;27;19920;-60
2022/08/22 14:24:52;;;;;;;;;;;28.00;36.40;;;;;;5128388;27;19919;-62
2022/08/22 14:27:27;;;;;;;;;;;28.00;36.20;;;;;;5132023;27;19923;-62
2022/08/22 14:29:55;;;;;;;;;;;28.00;37.40;;;;;;5134529;27;19923;-61
2022/08/22 14:32:31;;;;;;;;;;;27.90;37.70;;;;;;5135781;27;19919;-60
2022/08/22 14:35:00;;;;;;;;;;;28.00;37.70;;;;;;5131772;27;19927;-60
2022/08/22 14:37:30;;;;;;;;;;;28.00;37.30;;;;;;5127608;27;20357;-61
2022/08/22 14:40:02;;;;;;;;;;;28.00;37.30;;;;;;5134539;27;20296;-61
2022/08/22 14:42:30;;;;;;;;;;;28.00;35.90;;;;;;5121891;27;20001;-61
2022/08/22 14:45:01;;;;;;;;;;;28.00;35.40;;;;;;5134533;27;19919;-61
2022/08/22 14:47:31;;;;;;;;;;;28.00;36.80;;;;;;5134640;27;19927;-60
2022/08/22 14:49:58;;;;;;;;;;;28.00;36.20;;;;;;5129997;27;19951;-61
2022/08/22 14:52:27;;;;;;;;;;;28.00;35.40;;;;;;5133792;27;19933;-60
2022/08/22 14:55:04;;;;;;;;;;;28.00;36.20;;;;;;5131421;27;19923;-61